createdAt,value
2017-12-20T05:00:35.634Z,6.3
2017-12-20T05:01:01.122Z,6.3
2017-12-20T05:01:26.611Z,6.36
2017-12-20T05:01:52.090Z,6.33
2017-12-20T05:02:17.563Z,6.3
2017-12-20T05:02:43.058Z,6.27
2017-12-20T05:03:08.534Z,6.27
2017-12-20T05:03:34.012Z,6.27
2017-12-20T05:03:59.529Z,6.3
2017-12-20T05:04:24.993Z,6.31
2017-12-20T05:04:50.468Z,6.38
2017-12-20T05:05:16.009Z,6.38
2017-12-20T05:05:41.512Z,6.36
2017-12-20T05:06:07.010Z,6.33
2017-12-20T05:07:15.706Z,6.33
2017-12-20T05:07:41.187Z,6.3
2017-12-20T05:08:06.683Z,6.35
2017-12-20T05:08:32.187Z,6.44
2017-12-20T05:08:57.680Z,6.33
2017-12-20T05:09:23.218Z,6.3
2017-12-20T05:09:48.690Z,6.41
2017-12-20T05:10:14.176Z,6.38
2017-12-20T05:10:39.679Z,6.31
2017-12-20T05:11:05.169Z,6.27
2017-12-20T05:11:30.659Z,6.3
2017-12-20T05:11:56.292Z,6.36
2017-12-20T05:12:21.777Z,6.3
2017-12-20T05:12:47.310Z,6.38
2017-12-20T05:13:12.743Z,6.31
2017-12-20T05:13:38.224Z,6.39
2017-12-20T05:14:03.742Z,6.38
2017-12-20T05:14:29.230Z,6.35
2017-12-20T05:14:54.736Z,6.42
2017-12-20T05:15:20.206Z,6.42
2017-12-20T05:15:45.702Z,6.38
2017-12-20T05:16:11.166Z,6.36
2017-12-20T05:16:36.690Z,6.33
2017-12-20T05:17:02.161Z,6.36
2017-12-20T05:17:27.667Z,6.31
2017-12-20T05:17:53.129Z,6.46
2017-12-20T05:18:18.628Z,6.39
2017-12-20T05:18:44.136Z,6.38
2017-12-20T05:19:52.849Z,6.44
2017-12-20T05:20:18.337Z,6.26
2017-12-20T05:20:43.844Z,6.39
2017-12-20T05:21:09.330Z,6.36
2017-12-20T05:21:34.818Z,6.39
2017-12-20T05:22:00.305Z,6.39
2017-12-20T05:22:25.800Z,6.42
2017-12-20T05:22:51.360Z,6.3
2017-12-20T05:23:16.821Z,6.44
2017-12-20T05:23:42.298Z,6.41
2017-12-20T05:24:07.791Z,6.42
2017-12-20T05:24:33.257Z,6.38
2017-12-20T05:24:58.756Z,6.3
2017-12-20T05:25:24.256Z,6.46
2017-12-20T05:25:49.775Z,6.31
2017-12-20T05:26:15.397Z,6.33
2017-12-20T05:26:40.842Z,6.38
2017-12-20T05:27:38.856Z,6.26
2017-12-20T05:28:04.332Z,6.31
2017-12-20T05:28:29.829Z,6.38
2017-12-20T05:28:55.328Z,6.26
2017-12-20T05:29:20.825Z,6.39
2017-12-20T05:29:46.318Z,6.31
2017-12-20T05:30:11.800Z,6.36
2017-12-20T05:30:37.282Z,6.38
2017-12-20T05:31:02.790Z,6.27
2017-12-20T05:31:28.248Z,6.36
2017-12-20T05:31:53.698Z,6.35
2017-12-20T05:32:19.175Z,6.3
2017-12-20T05:32:44.660Z,6.38
2017-12-20T05:33:10.172Z,6.33
2017-12-20T05:33:35.627Z,6.3
2017-12-20T05:34:01.126Z,6.28
2017-12-20T05:34:26.625Z,6.36
2017-12-20T05:34:52.117Z,6.39
2017-12-20T05:35:17.604Z,6.31
2017-12-20T05:35:43.112Z,6.39
2017-12-20T05:36:08.585Z,6.27
2017-12-20T05:36:34.059Z,6.26
2017-12-20T05:36:59.597Z,6.38
2017-12-20T05:37:25.099Z,6.33
2017-12-20T05:37:50.592Z,6.26
2017-12-20T05:38:16.109Z,6.27
2017-12-20T05:38:41.590Z,6.36
2017-12-20T05:39:07.148Z,6.31
2017-12-20T05:39:32.600Z,6.38
2017-12-20T05:39:58.104Z,6.27
2017-12-20T05:40:23.583Z,6.26
2017-12-20T05:40:49.073Z,6.36
2017-12-20T05:41:14.596Z,6.35
2017-12-20T05:41:40.146Z,6.42
2017-12-20T05:42:05.595Z,6.42
2017-12-20T05:42:31.068Z,6.26
2017-12-20T05:42:56.586Z,6.39
2017-12-20T05:43:22.093Z,6.28
2017-12-20T05:43:47.586Z,6.36
2017-12-20T05:44:13.071Z,6.38
2017-12-20T05:44:38.562Z,6.28
2017-12-20T05:45:04.067Z,6.36
2017-12-20T05:45:29.566Z,6.38
2017-12-20T05:45:55.034Z,6.36
2017-12-20T05:46:43.328Z,6.36
2017-12-20T05:47:08.831Z,6.28
2017-12-20T05:47:34.330Z,6.41
2017-12-20T05:47:59.816Z,6.44
2017-12-20T05:48:25.320Z,6.39
2017-12-20T05:48:50.794Z,6.44
2017-12-20T05:49:16.295Z,6.38
2017-12-20T05:49:41.804Z,6.38
2017-12-20T05:50:07.308Z,6.31
2017-12-20T05:50:32.817Z,6.31
2017-12-20T05:50:58.300Z,6.42
2017-12-20T05:51:23.779Z,6.3
2017-12-20T05:51:49.316Z,6.41
2017-12-20T05:52:14.794Z,6.41
2017-12-20T05:52:40.274Z,6.39
2017-12-20T05:53:05.763Z,6.42
2017-12-20T05:53:31.262Z,6.3
2017-12-20T05:53:56.757Z,6.33
2017-12-20T05:54:22.254Z,6.41
2017-12-20T05:54:47.779Z,6.35
2017-12-20T05:55:13.227Z,6.3
2017-12-20T05:56:06.648Z,6.38
2017-12-20T05:56:32.125Z,6.28
2017-12-20T05:56:57.616Z,6.39
2017-12-20T05:57:23.103Z,6.41
2017-12-20T05:57:48.584Z,6.28
2017-12-20T05:58:14.061Z,6.41
2017-12-20T05:58:39.552Z,6.39
2017-12-20T05:59:05.071Z,6.41
2017-12-20T05:59:30.586Z,6.36
2017-12-20T05:59:56.074Z,6.35
2017-12-20T06:00:48.976Z,6.38
2017-12-20T06:01:14.486Z,6.39
2017-12-20T06:01:39.972Z,6.41
2017-12-20T06:02:05.461Z,6.41
2017-12-20T06:02:30.943Z,6.41
2017-12-20T06:02:56.420Z,6.36
2017-12-20T06:03:21.909Z,6.41
2017-12-20T06:03:47.391Z,6.41
2017-12-20T06:04:12.853Z,6.38
2017-12-20T06:04:38.316Z,6.38
2017-12-20T06:05:03.831Z,6.35
2017-12-20T06:05:29.343Z,6.44
2017-12-20T06:05:54.825Z,6.35
2017-12-20T06:06:20.329Z,6.39
2017-12-20T06:06:45.862Z,6.38
2017-12-20T06:07:11.382Z,6.41
2017-12-20T06:07:36.868Z,6.42
2017-12-20T06:08:02.429Z,6.38
2017-12-20T06:08:27.869Z,6.38
2017-12-20T06:09:16.191Z,6.42
2017-12-20T06:09:41.698Z,6.42
2017-12-20T06:10:07.212Z,6.35
2017-12-20T06:10:32.698Z,6.46
2017-12-20T06:10:58.239Z,6.42
2017-12-20T06:11:23.716Z,6.45
2017-12-20T06:12:22.240Z,6.42
2017-12-20T06:12:47.728Z,6.44
2017-12-20T06:13:13.230Z,6.41
2017-12-20T06:13:38.702Z,6.44
2017-12-20T06:14:04.233Z,6.42
2017-12-20T06:14:29.722Z,6.45
2017-12-20T06:14:55.190Z,6.42
2017-12-20T06:15:20.678Z,6.42
2017-12-20T06:15:46.162Z,6.48
2017-12-20T06:16:11.648Z,6.42
2017-12-20T06:17:20.336Z,6.46
2017-12-20T06:17:45.834Z,6.38
2017-12-20T06:18:11.322Z,6.42
2017-12-20T06:18:36.819Z,6.48
2017-12-20T06:19:30.229Z,6.49
2017-12-20T06:20:23.640Z,6.46
2017-12-20T06:20:49.194Z,6.42
2017-12-20T06:21:14.619Z,6.45
2017-12-20T06:21:40.108Z,6.48
2017-12-20T06:22:05.604Z,6.41
2017-12-20T06:22:31.078Z,6.45
2017-12-20T06:22:56.561Z,6.48
2017-12-20T06:23:22.062Z,6.48
2017-12-20T06:23:47.570Z,6.49
2017-12-20T06:24:13.067Z,6.44
2017-12-20T06:24:38.497Z,6.42
2017-12-20T06:25:04.029Z,6.46
2017-12-20T06:25:29.509Z,6.42
2017-12-20T06:25:54.982Z,6.42
2017-12-20T06:26:20.511Z,6.51
2017-12-20T06:26:46.018Z,6.45
2017-12-20T06:27:11.546Z,6.44
2017-12-20T06:27:37.032Z,6.45
2017-12-20T06:28:02.505Z,6.45
2017-12-20T06:28:28.002Z,6.39
2017-12-20T06:28:53.471Z,6.48
2017-12-20T06:29:18.946Z,6.46
2017-12-20T06:29:44.421Z,6.44
2017-12-20T06:30:10.072Z,6.48
2017-12-20T06:30:35.569Z,6.36
2017-12-20T06:31:01.044Z,6.49
2017-12-20T06:31:26.566Z,6.46
2017-12-20T06:31:52.058Z,6.48
2017-12-20T06:32:17.534Z,6.44
2017-12-20T06:32:43.040Z,6.48
2017-12-20T06:33:08.523Z,6.51
2017-12-20T06:33:33.972Z,6.48
2017-12-20T06:33:59.448Z,6.39
2017-12-20T06:34:24.943Z,6.39
2017-12-20T06:34:50.457Z,6.49
2017-12-20T06:35:15.955Z,6.41
2017-12-20T06:35:41.431Z,6.42
2017-12-20T06:36:06.944Z,6.46
2017-12-20T06:36:32.438Z,6.39
2017-12-20T06:36:57.929Z,6.39
2017-12-20T06:37:23.461Z,6.45
2017-12-20T06:37:48.928Z,6.46
2017-12-20T06:38:14.434Z,6.45
2017-12-20T06:38:39.898Z,6.54
2017-12-20T06:39:05.365Z,6.42
2017-12-20T06:39:30.897Z,6.41
2017-12-20T06:39:56.394Z,6.45
2017-12-20T06:40:21.943Z,6.46
2017-12-20T06:40:47.385Z,6.57
2017-12-20T06:41:12.913Z,6.51
2017-12-20T06:41:38.423Z,6.41
2017-12-20T06:42:03.911Z,6.44
2017-12-20T06:42:29.410Z,6.49
2017-12-20T06:42:54.921Z,6.48
2017-12-20T06:43:20.406Z,6.51
2017-12-20T06:43:45.902Z,6.48
2017-12-20T06:44:11.406Z,6.52
2017-12-20T06:44:36.882Z,6.51
2017-12-20T06:45:02.358Z,6.46
2017-12-20T06:45:27.851Z,6.52
2017-12-20T06:46:26.327Z,6.54
2017-12-20T06:46:51.804Z,6.51
2017-12-20T06:47:17.279Z,6.49
2017-12-20T06:47:42.889Z,6.45
2017-12-20T06:48:08.378Z,6.56
2017-12-20T06:48:34.089Z,6.54
2017-12-20T06:48:59.661Z,6.44
2017-12-20T06:49:25.253Z,6.52
2017-12-20T06:49:50.782Z,6.46
2017-12-20T06:50:16.259Z,6.46
2017-12-20T06:50:41.756Z,6.49
2017-12-20T06:51:07.256Z,6.54
2017-12-20T06:51:32.745Z,6.52
2017-12-20T06:51:58.234Z,6.49
2017-12-20T06:52:23.730Z,6.46
2017-12-20T06:52:49.182Z,6.46
2017-12-20T06:53:14.641Z,6.49
2017-12-20T06:53:40.118Z,6.52
2017-12-20T06:54:05.607Z,6.52
2017-12-20T06:54:31.082Z,6.46
2017-12-20T06:54:56.577Z,6.52
2017-12-20T06:55:22.043Z,6.49
2017-12-20T06:55:47.611Z,6.49
2017-12-20T06:56:13.040Z,6.52
2017-12-20T06:56:38.497Z,6.54
2017-12-20T06:57:03.985Z,6.56
2017-12-20T06:57:29.424Z,6.48
2017-12-20T06:57:54.903Z,6.51
2017-12-20T06:58:20.378Z,6.49
2017-12-20T06:58:45.878Z,6.49
2017-12-20T06:59:11.386Z,6.52
2017-12-20T06:59:36.841Z,6.54
2017-12-20T07:00:02.362Z,6.44
2017-12-20T07:00:27.824Z,6.49
2017-12-20T07:00:53.294Z,6.52
2017-12-20T07:01:18.790Z,6.49
2017-12-20T07:01:44.273Z,6.57
2017-12-20T07:02:09.809Z,6.52
2017-12-20T07:02:35.278Z,6.54
2017-12-20T07:03:00.758Z,6.46
2017-12-20T07:03:26.235Z,6.51
2017-12-20T07:03:51.683Z,6.62
2017-12-20T07:04:17.168Z,6.54
2017-12-20T07:04:42.645Z,6.59
2017-12-20T07:05:36.094Z,6.52
2017-12-20T07:06:01.598Z,6.52
2017-12-20T07:06:27.084Z,6.49
2017-12-20T07:06:52.579Z,6.56
2017-12-20T07:07:18.061Z,6.57
2017-12-20T07:07:43.565Z,6.51
2017-12-20T07:08:09.034Z,6.6
2017-12-20T07:08:34.547Z,6.59
2017-12-20T07:09:00.044Z,6.54
2017-12-20T07:09:25.525Z,6.57
2017-12-20T07:09:51.018Z,6.59
2017-12-20T07:10:16.511Z,6.6
2017-12-20T07:10:42.038Z,6.62
2017-12-20T07:11:07.555Z,6.57
2017-12-20T07:11:33.021Z,6.56
2017-12-20T07:11:58.560Z,6.57
2017-12-20T07:12:24.035Z,6.6
2017-12-20T07:12:49.529Z,6.59
2017-12-20T07:13:14.993Z,6.54
2017-12-20T07:13:40.474Z,6.6
2017-12-20T07:14:28.764Z,6.56
2017-12-20T07:14:54.252Z,6.59
2017-12-20T07:15:19.752Z,6.57
2017-12-20T07:15:45.251Z,6.51
2017-12-20T07:16:48.902Z,6.62
2017-12-20T07:17:14.298Z,6.59
2017-12-20T07:17:39.787Z,6.64
2017-12-20T07:18:05.272Z,6.62
2017-12-20T07:18:30.777Z,6.54
2017-12-20T07:18:56.274Z,6.51
2017-12-20T07:19:21.946Z,6.59
2017-12-20T07:19:47.423Z,6.62
2017-12-20T07:20:12.868Z,6.62
2017-12-20T07:20:38.399Z,6.57
2017-12-20T07:21:03.863Z,6.52
2017-12-20T07:22:02.363Z,6.52
2017-12-20T07:22:27.845Z,6.54
2017-12-20T07:22:53.342Z,6.64
2017-12-20T07:23:18.838Z,6.59
2017-12-20T07:23:44.325Z,6.57
2017-12-20T07:24:09.841Z,6.56
2017-12-20T07:24:35.392Z,6.52
2017-12-20T07:25:00.824Z,6.59
2017-12-20T07:25:26.327Z,6.56
2017-12-20T07:25:51.853Z,6.52
2017-12-20T07:26:17.349Z,6.56
2017-12-20T07:26:42.841Z,6.54
2017-12-20T07:27:08.303Z,6.54
2017-12-20T07:27:33.805Z,6.56
2017-12-20T07:27:59.300Z,6.54
2017-12-20T07:28:24.774Z,6.63
2017-12-20T07:28:50.278Z,6.56
2017-12-20T07:29:15.795Z,6.6
2017-12-20T07:29:41.296Z,6.62
2017-12-20T07:30:06.763Z,6.62
2017-12-20T07:30:32.228Z,6.62
2017-12-20T07:30:57.730Z,6.62
2017-12-20T07:31:23.234Z,6.62
2017-12-20T07:31:48.742Z,6.59
2017-12-20T07:32:14.239Z,6.63
2017-12-20T07:32:39.749Z,6.64
2017-12-20T07:33:05.219Z,6.6
2017-12-20T07:33:30.723Z,6.7
2017-12-20T07:33:56.288Z,6.62
2017-12-20T07:34:21.771Z,6.77
2017-12-20T07:34:47.262Z,6.72
2017-12-20T07:35:12.758Z,6.78
2017-12-20T07:35:38.221Z,6.64
2017-12-20T07:36:03.705Z,6.67
2017-12-20T07:36:52.024Z,6.72
2017-12-20T07:37:17.529Z,6.74
2017-12-20T07:37:43.028Z,6.74
2017-12-20T07:38:08.531Z,6.72
2017-12-20T07:38:33.997Z,6.74
2017-12-20T07:38:59.493Z,6.74
2017-12-20T07:39:25.004Z,6.69
2017-12-20T07:39:50.532Z,6.62
2017-12-20T07:40:16.029Z,6.7
2017-12-20T07:40:41.520Z,6.72
2017-12-20T07:41:06.982Z,6.66
2017-12-20T07:41:32.497Z,6.75
2017-12-20T07:41:57.964Z,6.7
2017-12-20T07:42:23.499Z,6.7
2017-12-20T07:42:48.987Z,6.72
2017-12-20T07:43:14.544Z,6.75
2017-12-20T07:43:40.059Z,6.69
2017-12-20T07:44:05.556Z,6.72
2017-12-20T07:44:31.059Z,6.72
2017-12-20T07:44:56.556Z,6.77
2017-12-20T07:45:22.045Z,6.62
2017-12-20T07:45:47.510Z,6.67
2017-12-20T07:46:13.016Z,6.74
2017-12-20T07:46:38.516Z,6.7
2017-12-20T07:47:04.012Z,6.59
2017-12-20T07:47:29.496Z,6.69
2017-12-20T07:47:55.002Z,6.63
2017-12-20T07:48:20.485Z,6.63
2017-12-20T07:48:45.954Z,6.6
2017-12-20T07:49:11.444Z,6.67
2017-12-20T07:49:36.969Z,6.69
2017-12-20T07:50:02.497Z,6.74
2017-12-20T07:50:27.969Z,6.6
2017-12-20T07:50:53.486Z,6.69
2017-12-20T07:51:18.959Z,6.66
2017-12-20T07:51:44.480Z,6.6
2017-12-20T07:52:10.082Z,6.6
2017-12-20T07:52:35.649Z,6.64
2017-12-20T07:53:01.120Z,6.74
2017-12-20T07:53:26.604Z,6.67
2017-12-20T07:53:52.112Z,6.64
2017-12-20T07:54:17.588Z,6.59
2017-12-20T07:54:43.101Z,6.59
2017-12-20T07:55:08.594Z,6.7
2017-12-20T07:55:34.104Z,6.72
2017-12-20T07:55:59.584Z,6.67
2017-12-20T07:56:25.288Z,6.72
2017-12-20T07:56:50.838Z,6.6
2017-12-20T07:57:16.336Z,6.67
2017-12-20T07:57:41.830Z,6.72
2017-12-20T07:58:07.428Z,6.66
2017-12-20T07:58:33.067Z,6.63
2017-12-20T07:58:58.527Z,6.66
2017-12-20T07:59:24.084Z,6.69
2017-12-20T07:59:49.703Z,6.62
2017-12-20T08:00:15.144Z,6.74
2017-12-20T08:00:40.641Z,6.7
2017-12-20T08:01:06.127Z,6.69
2017-12-20T08:01:31.613Z,6.6
2017-12-20T08:01:57.239Z,6.74
2017-12-20T08:02:22.804Z,6.62
2017-12-20T08:02:48.289Z,6.63
2017-12-20T08:03:13.826Z,6.64
2017-12-20T08:03:39.742Z,6.62
2017-12-20T08:04:05.057Z,6.6
2017-12-20T08:04:30.589Z,6.69
2017-12-20T08:04:56.106Z,6.54
2017-12-20T08:05:21.610Z,6.72
2017-12-20T08:05:47.095Z,6.66
2017-12-20T08:06:12.572Z,6.66
2017-12-20T08:06:38.108Z,6.59
2017-12-20T08:07:03.603Z,6.64
2017-12-20T08:07:29.154Z,6.72
2017-12-20T08:07:54.641Z,6.64
2017-12-20T08:08:20.131Z,6.72
2017-12-20T08:08:45.643Z,6.62
2017-12-20T08:09:11.105Z,6.72
2017-12-20T08:09:36.589Z,6.57
2017-12-20T08:10:02.135Z,6.7
2017-12-20T08:10:27.579Z,6.62
2017-12-20T08:10:53.068Z,6.67
2017-12-20T08:11:18.569Z,6.77
2017-12-20T08:11:44.102Z,6.78
2017-12-20T08:12:09.590Z,6.72
2017-12-20T08:12:35.074Z,6.62
2017-12-20T08:13:00.588Z,6.72
2017-12-20T08:13:26.104Z,6.64
2017-12-20T08:13:51.612Z,6.74
2017-12-20T08:14:17.312Z,6.74
2017-12-20T08:14:42.869Z,6.69
2017-12-20T08:15:08.341Z,6.77
2017-12-20T08:15:33.887Z,6.7
2017-12-20T08:16:27.340Z,6.69
2017-12-20T08:16:52.828Z,6.67
2017-12-20T08:17:18.359Z,6.75
2017-12-20T08:17:43.854Z,6.69
2017-12-20T08:18:09.337Z,6.7
2017-12-20T08:18:34.984Z,6.72
2017-12-20T08:19:00.486Z,6.72
2017-12-20T08:19:25.944Z,6.7
2017-12-20T08:19:51.462Z,6.7
2017-12-20T08:20:16.920Z,6.72
2017-12-20T08:20:42.396Z,6.66
2017-12-20T08:21:07.916Z,6.7
2017-12-20T08:21:33.398Z,6.74
2017-12-20T08:21:58.889Z,6.75
2017-12-20T08:22:24.380Z,6.77
2017-12-20T08:22:49.886Z,6.75
2017-12-20T08:23:15.396Z,6.78
2017-12-20T08:23:40.840Z,6.75
2017-12-20T08:24:06.309Z,6.78
2017-12-20T08:24:31.798Z,6.79
2017-12-20T08:24:57.291Z,6.77
2017-12-20T08:25:22.769Z,6.77
2017-12-20T08:25:48.199Z,6.77
2017-12-20T08:26:13.734Z,6.77
2017-12-20T08:26:39.209Z,6.78
2017-12-20T08:27:04.691Z,6.81
2017-12-20T08:27:30.212Z,6.82
2017-12-20T08:27:55.820Z,6.78
2017-12-20T08:28:21.498Z,6.75
2017-12-20T08:28:46.990Z,6.79
2017-12-20T08:29:12.561Z,6.79
2017-12-20T08:31:36.067Z,6.79
2017-12-20T08:32:01.559Z,6.85
2017-12-20T08:32:27.016Z,6.79
2017-12-20T08:32:52.492Z,6.75
2017-12-20T08:33:18.003Z,6.78
2017-12-20T08:33:43.495Z,6.82
2017-12-20T08:34:08.968Z,6.81
2017-12-20T08:34:34.457Z,6.92
2017-12-20T08:34:59.966Z,6.78
2017-12-20T08:35:25.457Z,6.79
2017-12-20T08:35:50.953Z,6.75
2017-12-20T08:36:16.467Z,6.75
2017-12-20T08:36:42.104Z,6.81
2017-12-20T08:37:07.610Z,6.81
2017-12-20T08:37:33.378Z,6.84
2017-12-20T08:37:58.886Z,6.84
2017-12-20T08:38:24.374Z,6.85
2017-12-20T08:38:49.917Z,6.84
2017-12-20T08:39:15.416Z,6.85
2017-12-20T08:39:40.939Z,6.81
2017-12-20T08:40:06.420Z,6.82
2017-12-20T08:41:00.130Z,6.85
2017-12-20T08:41:25.660Z,6.85
2017-12-20T08:41:51.138Z,6.85
2017-12-20T08:42:54.708Z,6.82
2017-12-20T08:43:20.193Z,6.87
2017-12-20T08:43:45.685Z,6.93
2017-12-20T08:44:11.174Z,6.87
2017-12-20T08:44:36.686Z,6.85
2017-12-20T08:45:02.216Z,6.82
2017-12-20T08:45:27.686Z,6.89
2017-12-20T08:45:53.157Z,6.85
2017-12-20T08:46:18.633Z,6.87
2017-12-20T08:46:44.118Z,6.88
2017-12-20T08:47:09.645Z,6.88
2017-12-20T08:47:35.149Z,6.88
2017-12-20T08:48:00.668Z,6.92
2017-12-20T08:48:26.186Z,6.87
2017-12-20T08:48:51.663Z,6.93
2017-12-20T08:49:17.188Z,6.84
2017-12-20T08:49:42.651Z,6.92
2017-12-20T08:50:08.099Z,6.87
2017-12-20T08:50:33.572Z,6.84
2017-12-20T08:50:59.057Z,6.82
2017-12-20T08:51:24.606Z,6.88
2017-12-20T08:51:50.098Z,6.89
2017-12-20T08:52:15.592Z,6.89
2017-12-20T08:52:41.074Z,6.88
2017-12-20T08:53:06.587Z,6.88
2017-12-20T08:53:32.125Z,6.82
2017-12-20T08:53:57.663Z,6.92
2017-12-20T08:54:23.192Z,6.92
2017-12-20T08:54:48.696Z,6.87
2017-12-20T08:55:14.227Z,6.88
2017-12-20T08:55:39.754Z,6.93
2017-12-20T08:56:05.255Z,6.89
2017-12-20T08:56:30.772Z,6.89
2017-12-20T08:56:56.292Z,6.92
2017-12-20T08:57:21.784Z,6.88
2017-12-20T08:57:47.270Z,6.88
2017-12-20T08:58:12.735Z,6.99
2017-12-20T08:58:38.250Z,6.97
2017-12-20T08:59:03.747Z,6.92
2017-12-20T08:59:29.202Z,6.99
2017-12-20T08:59:54.699Z,6.95
2017-12-20T09:00:20.184Z,6.89
2017-12-20T09:00:45.696Z,6.89
2017-12-20T09:01:11.186Z,6.89
2017-12-20T09:01:36.694Z,6.96
2017-12-20T09:02:02.188Z,6.96
2017-12-20T09:02:27.720Z,6.85
2017-12-20T09:02:53.227Z,6.89
2017-12-20T09:03:18.692Z,6.92
2017-12-20T09:03:44.183Z,6.92
2017-12-20T09:04:09.683Z,6.92
2017-12-20T09:04:35.158Z,6.97
2017-12-20T09:05:00.683Z,6.97
2017-12-20T09:05:26.171Z,6.92
2017-12-20T09:05:51.644Z,6.92
2017-12-20T09:06:17.133Z,6.89
2017-12-20T09:06:42.669Z,6.93
2017-12-20T09:07:08.169Z,6.96
2017-12-20T09:07:33.682Z,7.03
2017-12-20T09:07:59.178Z,6.96
2017-12-20T09:08:24.640Z,6.95
2017-12-20T09:08:50.109Z,6.95
2017-12-20T09:09:15.658Z,6.89
2017-12-20T09:09:41.242Z,6.92
2017-12-20T09:10:06.710Z,6.95
2017-12-20T09:10:32.179Z,6.96
2017-12-20T09:10:57.691Z,7.07
2017-12-20T09:11:23.149Z,7.03
2017-12-20T09:11:48.690Z,7.05
2017-12-20T09:12:57.380Z,7
2017-12-20T09:13:22.890Z,7.06
2017-12-20T09:13:48.394Z,7.06
2017-12-20T09:14:13.864Z,7.13
2017-12-20T09:14:39.328Z,7.02
2017-12-20T09:15:04.841Z,7.1
2017-12-20T09:15:30.338Z,7.07
2017-12-20T09:15:55.874Z,7.11
2017-12-20T09:16:21.345Z,7.15
2017-12-20T09:16:46.816Z,7.14
2017-12-20T09:17:12.306Z,7.05
2017-12-20T09:17:37.843Z,7.07
2017-12-20T09:18:03.341Z,7.18
2017-12-20T09:18:28.858Z,7.06
2017-12-20T09:18:54.316Z,7.15
2017-12-20T09:19:19.798Z,7.13
2017-12-20T09:19:45.340Z,7.15
2017-12-20T09:20:10.856Z,7.1
2017-12-20T09:20:36.325Z,7.21
2017-12-20T09:21:01.819Z,7.15
2017-12-20T09:21:27.344Z,7.14
2017-12-20T09:21:52.869Z,7.11
2017-12-20T09:22:18.427Z,7.17
2017-12-20T09:22:43.948Z,7.2
2017-12-20T09:23:09.474Z,7.13
2017-12-20T09:23:34.931Z,7.18
2017-12-20T09:24:00.402Z,7.17
2017-12-20T09:24:25.868Z,7.2
2017-12-20T09:25:29.493Z,7.07
2017-12-20T09:25:55.000Z,7.2
2017-12-20T09:26:20.500Z,7.23
2017-12-20T09:26:45.984Z,7.17
2017-12-20T09:27:11.519Z,7.2
2017-12-20T09:27:36.991Z,7.15
2017-12-20T09:28:02.484Z,7.21
2017-12-20T09:28:27.987Z,7.2
2017-12-20T09:28:53.490Z,7.18
2017-12-20T09:29:19.004Z,7.25
2017-12-20T09:29:44.491Z,7.15
2017-12-20T09:30:10.006Z,7.17
2017-12-20T09:30:35.475Z,7.2
2017-12-20T09:31:00.979Z,7.2
2017-12-20T09:31:26.449Z,7.24
2017-12-20T09:31:51.934Z,7.18
2017-12-20T09:32:17.462Z,7.15
2017-12-20T09:32:42.966Z,7.15
2017-12-20T09:33:08.445Z,7.21
2017-12-20T09:33:34.026Z,7.2
2017-12-20T09:33:59.569Z,7.15
2017-12-20T09:34:25.059Z,7.23
2017-12-20T09:34:50.654Z,7.15
2017-12-20T09:35:16.182Z,7.17
2017-12-20T09:35:41.721Z,7.14
2017-12-20T09:36:07.234Z,7.18
2017-12-20T09:36:32.718Z,7.14
2017-12-20T09:36:58.178Z,7.15
2017-12-20T09:37:23.692Z,7.23
2017-12-20T09:37:49.200Z,7.23
2017-12-20T09:38:14.730Z,7.23
2017-12-20T09:38:40.216Z,7.15
2017-12-20T09:39:05.680Z,7.2
2017-12-20T09:39:31.183Z,7.2
2017-12-20T09:39:56.661Z,7.18
2017-12-20T09:40:22.133Z,7.17
2017-12-20T09:40:47.629Z,7.15
2017-12-20T09:41:13.118Z,7.2
2017-12-20T09:41:38.608Z,7.24
2017-12-20T09:42:04.103Z,7.21
2017-12-20T09:42:29.599Z,7.24
2017-12-20T09:42:55.111Z,7.31
2017-12-20T09:43:20.570Z,7.15
2017-12-20T09:43:46.083Z,7.06
2017-12-20T09:44:11.574Z,7.24
2017-12-20T09:44:37.298Z,7.24
2017-12-20T09:45:02.930Z,7.29
2017-12-20T09:45:28.414Z,7.24
2017-12-20T09:45:54.068Z,7.2
2017-12-20T09:46:19.510Z,7.28
2017-12-20T09:46:44.892Z,7.24
2017-12-20T09:47:10.420Z,7.29
2017-12-20T09:47:35.862Z,7.14
2017-12-20T09:48:01.348Z,7.23
2017-12-20T09:48:26.839Z,7.28
2017-12-20T09:48:52.269Z,7.11
2017-12-20T09:49:17.745Z,7.14
2017-12-20T09:49:43.210Z,7.21
2017-12-20T09:50:08.656Z,7.31
2017-12-20T09:50:34.176Z,7.25
2017-12-20T09:50:59.637Z,7.1
2017-12-20T09:51:25.072Z,7.21
2017-12-20T09:51:50.548Z,7.23
2017-12-20T09:52:16.034Z,7.21
2017-12-20T09:52:41.481Z,7.18
2017-12-20T09:53:06.984Z,7.21
2017-12-20T09:53:32.420Z,7.28
2017-12-20T09:53:57.904Z,7.2
2017-12-20T09:54:23.455Z,7.24
2017-12-20T09:55:32.155Z,7.2
2017-12-20T09:55:57.670Z,7.21
2017-12-20T09:56:23.170Z,7.18
2017-12-20T09:56:48.688Z,7.32
2017-12-20T09:57:14.236Z,7.18
2017-12-20T09:57:39.685Z,7.21
2017-12-20T09:58:05.189Z,7.21
2017-12-20T09:58:30.687Z,7.23
2017-12-20T09:58:56.219Z,7.33
2017-12-20T09:59:21.721Z,7.28
2017-12-20T09:59:47.196Z,7.28
2017-12-20T10:00:12.700Z,7.24
2017-12-20T10:00:38.262Z,7.24
2017-12-20T10:01:03.707Z,7.24
2017-12-20T10:01:29.200Z,7.28
2017-12-20T10:01:54.698Z,7.24
2017-12-20T10:02:20.189Z,7.25
2017-12-20T10:02:45.734Z,7.28
2017-12-20T10:03:11.201Z,7.28
2017-12-20T10:03:36.686Z,7.29
2017-12-20T10:04:02.197Z,7.29
2017-12-20T10:04:27.756Z,7.29
2017-12-20T10:04:53.220Z,7.31
2017-12-20T10:05:18.707Z,7.31
2017-12-20T10:05:44.183Z,7.29
2017-12-20T10:06:37.659Z,7.35
2017-12-20T10:07:03.154Z,7.29
2017-12-20T10:07:28.660Z,7.43
2017-12-20T10:07:54.174Z,7.33
2017-12-20T10:08:19.655Z,7.33
2017-12-20T10:08:45.164Z,7.29
2017-12-20T10:09:10.723Z,7.36
2017-12-20T10:09:36.231Z,7.36
2017-12-20T10:10:01.704Z,7.35
2017-12-20T10:10:27.515Z,7.42
2017-12-20T10:10:53.022Z,7.36
2017-12-20T10:11:18.517Z,7.47
2017-12-20T10:11:44.032Z,7.43
2017-12-20T10:12:09.527Z,7.47
2017-12-20T10:12:35.027Z,7.38
2017-12-20T10:13:00.542Z,7.38
2017-12-20T10:13:26.089Z,7.4
2017-12-20T10:13:51.549Z,7.38
2017-12-20T10:14:17.094Z,7.43
2017-12-20T10:14:42.611Z,7.38
2017-12-20T10:15:08.113Z,7.45
2017-12-20T10:15:33.695Z,7.4
2017-12-20T10:15:59.240Z,7.43
2017-12-20T10:16:24.727Z,7.5
2017-12-20T10:16:50.328Z,7.45
2017-12-20T10:17:15.870Z,7.51
2017-12-20T10:17:41.271Z,7.48
2017-12-20T10:18:06.800Z,7.5
2017-12-20T10:18:32.311Z,7.47
2017-12-20T10:18:57.820Z,7.51
2017-12-20T10:19:23.292Z,7.48
2017-12-20T10:19:48.855Z,7.47
2017-12-20T10:20:14.391Z,7.48
2017-12-20T10:20:39.940Z,7.51
2017-12-20T10:21:05.453Z,7.51
2017-12-20T10:21:31.011Z,7.48
2017-12-20T10:21:56.493Z,7.43
2017-12-20T10:22:22.040Z,7.5
2017-12-20T10:23:15.480Z,7.5
2017-12-20T10:23:41.045Z,7.51
2017-12-20T10:24:06.523Z,7.56
2017-12-20T10:24:32.010Z,7.42
2017-12-20T10:24:57.621Z,7.45
2017-12-20T10:25:23.097Z,7.47
2017-12-20T10:25:48.633Z,7.5
2017-12-20T10:26:14.467Z,7.56
2017-12-20T10:26:40.073Z,7.47
2017-12-20T10:27:05.528Z,7.47
2017-12-20T10:27:58.937Z,7.57
2017-12-20T10:28:24.399Z,7.54
2017-12-20T10:28:49.887Z,7.48
2017-12-20T10:29:15.436Z,7.6
2017-12-20T10:29:40.909Z,7.54
2017-12-20T10:30:06.386Z,7.57
2017-12-20T10:30:31.875Z,7.58
2017-12-20T10:30:57.366Z,7.5
2017-12-20T10:31:22.885Z,7.48
2017-12-20T10:31:48.383Z,7.66
2017-12-20T10:32:13.931Z,7.5
2017-12-20T10:32:39.458Z,7.51
2017-12-20T10:33:04.951Z,7.53
2017-12-20T10:33:32.304Z,7.53
2017-12-20T10:33:55.874Z,7.53
2017-12-20T10:34:21.419Z,7.54
2017-12-20T10:34:46.888Z,7.63
2017-12-20T10:35:12.456Z,7.51
2017-12-20T10:35:37.963Z,7.56
2017-12-20T10:36:03.475Z,7.61
2017-12-20T10:36:29.024Z,7.57
2017-12-20T10:36:54.530Z,7.5
2017-12-20T10:37:20.064Z,7.53
2017-12-20T10:37:45.472Z,7.63
2017-12-20T10:38:10.963Z,7.54
2017-12-20T10:38:36.448Z,7.54
2017-12-20T10:39:01.914Z,7.57
2017-12-20T10:39:27.447Z,7.56
2017-12-20T10:39:52.928Z,7.5
2017-12-20T10:40:18.479Z,7.54
2017-12-20T10:40:43.886Z,7.5
2017-12-20T10:41:09.400Z,7.47
2017-12-20T10:41:34.894Z,7.47
2017-12-20T10:42:00.480Z,7.57
2017-12-20T10:42:25.871Z,7.47
2017-12-20T10:42:51.319Z,7.45
2017-12-20T10:43:16.803Z,7.5
2017-12-20T10:43:42.298Z,7.53
2017-12-20T10:44:07.775Z,7.5
2017-12-20T10:44:33.341Z,7.63
2017-12-20T10:44:58.799Z,7.54
2017-12-20T10:45:24.296Z,7.53
2017-12-20T10:45:49.800Z,7.51
2017-12-20T10:46:15.354Z,7.53
2017-12-20T10:46:40.877Z,7.47
2017-12-20T10:47:06.384Z,7.47
2017-12-20T10:47:31.900Z,7.5
2017-12-20T10:47:57.399Z,7.43
2017-12-20T10:48:22.889Z,7.61
2017-12-20T10:48:48.358Z,7.54
2017-12-20T10:49:36.660Z,7.5
2017-12-20T10:50:02.161Z,7.57
2017-12-20T10:50:27.652Z,7.58
2017-12-20T10:50:53.121Z,7.51
2017-12-20T10:51:18.668Z,7.57
2017-12-20T10:51:44.127Z,7.56
2017-12-20T10:52:09.615Z,7.54
2017-12-20T10:52:35.102Z,7.61
2017-12-20T10:53:00.725Z,7.57
2017-12-20T10:53:26.095Z,7.57
2017-12-20T10:53:51.608Z,7.54
2017-12-20T10:54:17.080Z,7.66
2017-12-20T10:54:42.576Z,7.63
2017-12-20T10:55:08.032Z,7.61
2017-12-20T10:55:33.461Z,7.63
2017-12-20T10:55:58.941Z,7.6
2017-12-20T10:56:24.395Z,7.58
2017-12-20T10:56:49.857Z,7.54
2017-12-20T10:57:15.317Z,7.57